Private Wetterstation Wechselburg
Wetterdaten: Freitag, 24.10.2014
Datum Zeit Temp. +2m Bodentemp. Temp.+5cm Temp. Wind Windchill X Diff Temp. Feuchte +2m Feuchte +5cm Sonnenschein Luftdruck Regen Wind Richtung Richtung Sonnenschein UV Taupunkt Windchill Windben
24.10.2014 00:00 8,8 C 24,6 C 9,9 C 9,8 C 9,8 C 1,0 C 93 % 94 % 0 % 1024,5 hPa 0,0 l/m 0,0 km/h (0 Bft) SW 225 0 min 0,0 UV-I 7,7 C 9,8 C 0,0 km/h (0 Bft)
24.10.2014 00:05 8,7 C 24,6 C 9,9 C 9,7 C 9,7 C 1,0 C 93 % 94 % 0 % 1024,5 hPa 0,0 l/m 0,0 km/h (0 Bft) W-SW 247 0 min 0,0 UV-I 7,6 C 9,7 C 0,0 km/h (0 Bft)
24.10.2014 00:10 8,8 C 24,6 C 9,9 C 9,7 C 9,7 C 0,9 C 93 % 94 % 0 % 1024,6 hPa 0,0 l/m 0,0 km/h (0 Bft) W-SW 247 0 min 0,0 UV-I 7,7 C 9,7 C 0,0 km/h (0 Bft)
24.10.2014 00:15 8,8 C 24,7 C 9,9 C 9,7 C 9,7 C 0,9 C 93 % 94 % 0 % 1024,6 hPa 0,0 l/m 0,0 km/h (0 Bft) W-SW 247 0 min 0,0 UV-I 7,7 C 9,7 C 0,0 km/h (0 Bft)
24.10.2014 00:20 8,7 C 24,7 C 9,9 C 9,7 C 9,7 C 1,0 C 93 % 94 % 0 % 1024,6 hPa 0,0 l/m 0,0 km/h (0 Bft) W-SW 247 0 min 0,0 UV-I 7,6 C 9,7 C 0,0 km/h (0 Bft)
24.10.2014 00:25 8,7 C 24,7 C 9,9 C 9,7 C 9,7 C 1,0 C 93 % 94 % 0 % 1024,6 hPa 0,0 l/m 0,0 km/h (0 Bft) O 90 0 min 0,0 UV-I 7,6 C 9,7 C 0,0 km/h (0 Bft)
24.10.2014 00:30 8,7 C 24,6 C 9,9 C 9,7 C 9,7 C 1,0 C 93 % 94 % 0 % 1024,5 hPa 0,0 l/m 0,0 km/h (0 Bft) O-NO 67 0 min 0,0 UV-I 7,6 C 9,7 C 0,0 km/h (0 Bft)
24.10.2014 00:35 8,8 C 24,7 C 9,8 C 9,7 C 9,7 C 0,9 C 93 % 94 % 0 % 1024,5 hPa 0,0 l/m 0,0 km/h (0 Bft) O-NO 67 0 min 0,0 UV-I 7,7 C 9,7 C 0,0 km/h (0 Bft)
24.10.2014 00:42 8,7 C 24,7 C 9,8 C 9,7 C 9,7 C 1,0 C 93 % 94 % 0 % 1024,5 hPa 0,0 l/m 0,0 km/h (0 Bft) N 0 0 min 0,0 UV-I 7,6 C 9,7 C 0,0 km/h (0 Bft)
24.10.2014 00:45 8,7 C 24,7 C 9,8 C 9,7 C 9,7 C 1,0 C 93 % 94 % 0 % 1024,5 hPa 0,0 l/m 0,0 km/h (0 Bft) O 90 0 min 0,0 UV-I 7,6 C 9,7 C 0,0 km/h (0 Bft)
24.10.2014 00:50 8,8 C 24,7 C 9,9 C 9,8 C 9,8 C 1,0 C 93 % 94 % 0 % 1024,2 hPa 0,0 l/m 0,0 km/h (0 Bft) O-SO 112 0 min 0,0 UV-I 7,7 C 9,8 C 0,0 km/h (0 Bft)
24.10.2014 00:55 8,7 C 24,7 C 9,8 C 9,7 C 9,7 C 1,0 C 93 % 94 % 0 % 1024,2 hPa 0,0 l/m 0,0 km/h (0 Bft) O 90 0 min 0,0 UV-I 7,6 C 9,7 C 0,0 km/h (0 Bft)
24.10.2014 01:00 8,7 C 24,7 C 9,8 C 9,7 C 9,7 C 1,0 C 93 % 94 % 0 % 1024,2 hPa 0,0 l/m 0,0 km/h (0 Bft) O-SO 112 0 min 0,0 UV-I 7,6 C 9,7 C 0,0 km/h (0 Bft)
24.10.2014 01:05 8,7 C 24,7 C 9,9 C 9,7 C 9,7 C 1,0 C 93 % 94 % 0 % 1024,2 hPa 0,0 l/m 0,0 km/h (0 Bft) O-NO 67 0 min 0,0 UV-I 7,6 C 9,7 C 0,0 km/h (0 Bft)
24.10.2014 01:10 8,7 C 24,7 C 9,9 C 9,6 C 9,6 C 0,9 C 93 % 94 % 0 % 1024,5 hPa 0,0 l/m 0,0 km/h (0 Bft) O-NO 67 0 min 0,0 UV-I 7,6 C 9,6 C 0,0 km/h (0 Bft)
24.10.2014 01:15 8,7 C 24,7 C 9,9 C 9,6 C 9,6 C 0,9 C 93 % 94 % 0 % 1024,5 hPa 0,0 l/m 0,0 km/h (0 Bft) NO 45 0 min 0,0 UV-I 7,6 C 9,6 C 0,0 km/h (0 Bft)
24.10.2014 01:20 8,7 C 24,7 C 9,8 C 9,7 C 9,7 C 1,0 C 93 % 94 % 0 % 1024,5 hPa 0,0 l/m 0,0 km/h (0 Bft) O-NO 67 0 min 0,0 UV-I 7,6 C 9,7 C 0,0 km/h (0 Bft)
24.10.2014 01:25 8,7 C 24,7 C 9,9 C 9,7 C 9,7 C 1,0 C 93 % 94 % 0 % 1024,5 hPa 0,0 l/m 0,0 km/h (0 Bft) N-NW 337 0 min 0,0 UV-I 7,6 C 9,7 C 0,0 km/h (0 Bft)
24.10.2014 01:30 8,7 C 24,6 C 9,9 C 9,7 C 9,7 C 1,0 C 93 % 94 % 0 % 1024,6 hPa 0,0 l/m 0,0 km/h (0 Bft) N-NW 337 0 min 0,0 UV-I 7,6 C 9,7 C 0,0 km/h (0 Bft)
24.10.2014 01:35 8,7 C 24,7 C 9,8 C 9,7 C 9,7 C 1,0 C 93 % 94 % 0 % 1024,6 hPa 0,0 l/m 0,0 km/h (0 Bft) N-NW 337 0 min 0,0 UV-I 7,6 C 9,7 C 0,0 km/h (0 Bft)
24.10.2014 01:40 8,7 C 24,7 C 9,8 C 9,7 C 9,7 C 1,0 C 93 % 94 % 0 % 1024,6 hPa 0,0 l/m 0,0 km/h (0 Bft) N-NW 337 0 min 0,0 UV-I 7,6 C 9,7 C 0,0 km/h (0 Bft)
24.10.2014 01:45 8,6 C 24,7 C 9,9 C 9,7 C 9,7 C 1,1 C 93 % 94 % 0 % 1024,6 hPa 0,0 l/m 0,0 km/h (0 Bft) NW 315 0 min 0,0 UV-I 7,5 C 9,7 C 0,0 km/h (0 Bft)
24.10.2014 01:50 8,7 C 24,7 C 9,9 C 9,7 C 9,7 C 1,0 C 93 % 94 % 0 % 1024,5 hPa 0,0 l/m 0,0 km/h (0 Bft) W 270 0 min 0,0 UV-I 7,6 C 9,7 C 0,0 km/h (0 Bft)
24.10.2014 01:55 8,7 C 24,7 C 9,9 C 9,7 C 9,7 C 1,0 C 93 % 94 % 0 % 1024,5 hPa 0,0 l/m 0,0 km/h (0 Bft) SW 225 0 min 0,0 UV-I 7,6 C 9,7 C 0,0 km/h (0 Bft)
24.10.2014 02:00 8,7 C 24,7 C 9,9 C 9,7 C 9,7 C 1,0 C 93 % 94 % 0 % 1024,5 hPa 0,0 l/m 0,0 km/h (0 Bft) SW 225 0 min 0,0 UV-I 7,6 C 9,7 C 0,0 km/h (0 Bft)
24.10.2014 02:05 8,7 C 24,7 C 9,9 C 9,7 C 9,7 C 1,0 C 93 % 94 % 0 % 1024,5 hPa 0,0 l/m 0,0 km/h (0 Bft) S-SW 202 0 min 0,0 UV-I 7,6 C 9,7 C 0,0 km/h (0 Bft)
24.10.2014 02:10 8,6 C 24,7 C 9,7 C 9,6 C 9,6 C 1,0 C 93 % 94 % 0 % 1024,1 hPa 0,0 l/m 0,0 km/h (0 Bft) W-SW 247 0 min 0,0 UV-I 7,5 C 9,6 C 0,0 km/h (0 Bft)
24.10.2014 02:15 8,6 C 24,7 C 9,7 C 9,5 C 9,5 C 0,9 C 93 % 94 % 0 % 1024,1 hPa 0,0 l/m 0,0 km/h (0 Bft) W-SW 247 0 min 0,0 UV-I 7,5 C 9,5 C 0,0 km/h (0 Bft)
24.10.2014 02:20 8,7 C 24,7 C 9,6 C 9,3 C 9,3 C 0,6 C 93 % 94 % 0 % 1024,1 hPa 0,0 l/m 0,0 km/h (0 Bft) W-NW 292 0 min 0,0 UV-I 7,6 C 9,3 C 0,0 km/h (0 Bft)
24.10.2014 02:25 8,6 C 24,7 C 9,6 C 9,3 C 9,3 C 0,7 C 93 % 94 % 0 % 1024,1 hPa 0,0 l/m 0,0 km/h (0 Bft) O 90 0 min 0,0 UV-I 7,5 C 9,3 C 0,0 km/h (0 Bft)
24.10.2014 02:30 8,5 C 24,7 C 9,7 C 9,1 C 9,1 C 0,6 C 93 % 94 % 0 % 1024,5 hPa 0,0 l/m 0,0 km/h (0 Bft) SW 225 0 min 0,0 UV-I 7,4 C 9,1 C 0,0 km/h (0 Bft)
24.10.2014 02:35 8,4 C 24,7 C 9,5 C 8,9 C 8,9 C 0,5 C 93 % 94 % 0 % 1024,5 hPa 0,0 l/m 0,0 km/h (0 Bft) W 270 0 min 0,0 UV-I 7,3 C 8,9 C 0,0 km/h (0 Bft)
24.10.2014 02:40 8,3 C 24,7 C 9,3 C 8,5 C 8,5 C 0,2 C 92 % 94 % 0 % 1024,5 hPa 0,0 l/m 0,0 km/h (0 Bft) W 270 0 min 0,0 UV-I 7,1 C 8,5 C 0,0 km/h (0 Bft)
24.10.2014 02:45 8,3 C 24,6 C 9,1 C 8,3 C 8,3 C 0,0 C 92 % 94 % 0 % 1024,5 hPa 0,0 l/m 0,0 km/h (0 Bft) O 90 0 min 0,0 UV-I 7,1 C 8,3 C 0,0 km/h (0 Bft)
24.10.2014 02:50 8,1 C 24,6 C 9,1 C 8,2 C 8,2 C 0,1 C 92 % 94 % 0 % 1024,4 hPa 0,0 l/m 0,0 km/h (0 Bft) O-NO 67 0 min 0,0 UV-I 6,9 C 8,2 C 0,0 km/h (0 Bft)
24.10.2014 02:55 8,1 C 24,6 C 8,9 C 8,1 C 8,0 C 0,0 C 92 % 94 % 0 % 1024,4 hPa 0,0 l/m 0,0 km/h (0 Bft) O-NO 67 0 min 0,0 UV-I 6,9 C 8,0 C 0,0 km/h (0 Bft)
24.10.2014 03:00 7,9 C 24,6 C 8,6 C 7,9 C 7,9 C 0,0 C 92 % 94 % 0 % 1024,4 hPa 0,0 l/m 0,0 km/h (0 Bft) O-NO 67 0 min 0,0 UV-I 6,7 C 7,9 C 0,0 km/h (0 Bft)
24.10.2014 03:05 7,7 C 24,6 C 8,7 C 7,9 C 7,9 C 0,2 C 92 % 94 % 0 % 1024,4 hPa 0,0 l/m 0,0 km/h (0 Bft) O 90 0 min 0,0 UV-I 6,5 C 7,9 C 0,0 km/h (0 Bft)
24.10.2014 03:10 7,7 C 24,6 C 8,7 C 8,0 C 8,0 C 0,3 C 92 % 94 % 0 % 1024,3 hPa 0,0 l/m 0,0 km/h (0 Bft) O-NO 67 0 min 0,0 UV-I 6,5 C 8,0 C 0,0 km/h (0 Bft)
24.10.2014 03:15 7,6 C 24,6 C 8,7 C 8,1 C 8,1 C 0,5 C 92 % 94 % 0 % 1024,3 hPa 0,0 l/m 0,0 km/h (0 Bft) O-NO 67 0 min 0,0 UV-I 6,4 C 8,1 C 0,0 km/h (0 Bft)
24.10.2014 03:20 7,6 C 24,6 C 8,7 C 8,2 C 8,2 C 0,6 C 92 % 94 % 0 % 1024,3 hPa 0,0 l/m 1,0 km/h (0 Bft) O-NO 67 0 min 0,0 UV-I 6,4 C 8,2 C 3,5 km/h (1 Bft)
24.10.2014 03:25 7,7 C 24,6 C 8,8 C 8,5 C 8,5 C 0,8 C 92 % 94 % 0 % 1024,3 hPa 0,0 l/m 1,6 km/h (1 Bft) O-NO 67 0 min 0,0 UV-I 6,5 C 8,5 C 3,7 km/h (1 Bft)
24.10.2014 03:30 7,7 C 24,6 C 8,8 C 8,6 C 8,6 C 0,9 C 92 % 94 % 0 % 1024,4 hPa 0,0 l/m 1,0 km/h (0 Bft) O-NO 67 0 min 0,0 UV-I 6,5 C 8,6 C 0,0 km/h (0 Bft)
24.10.2014 03:35 7,8 C 24,6 C 8,7 C 8,7 C 8,7 C 0,9 C 93 % 94 % 0 % 1024,4 hPa 0,0 l/m 0,2 km/h (0 Bft) N-NO 22 0 min 0,0 UV-I 6,7 C 8,7 C 0,0 km/h (0 Bft)
24.10.2014 03:42 7,8 C 24,6 C 8,8 C 8,7 C 8,7 C 0,9 C 93 % 94 % 0 % 1024,4 hPa 0,0 l/m 0,3 km/h (0 Bft) N 0 0 min 0,0 UV-I 6,7 C 8,7 C 0,0 km/h (0 Bft)
24.10.2014 03:45 7,8 C 24,6 C 8,8 C 8,7 C 8,7 C 0,9 C 93 % 94 % 0 % 1024,4 hPa 0,0 l/m 0,3 km/h (0 Bft) O 90 0 min 0,0 UV-I 6,7 C 8,7 C 0,0 km/h (0 Bft)
24.10.2014 03:50 7,7 C 24,6 C 8,8 C 8,7 C 8,7 C 1,0 C 93 % 94 % 0 % 1024,3 hPa 0,0 l/m 0,2 km/h (0 Bft) W-SW 247 0 min 0,0 UV-I 6,6 C 8,7 C 0,0 km/h (0 Bft)
24.10.2014 03:55 7,7 C 24,6 C 8,8 C 8,7 C 8,7 C 1,0 C 93 % 94 % 0 % 1024,3 hPa 0,0 l/m 0,0 km/h (0 Bft) W 270 0 min 0,0 UV-I 6,6 C 8,7 C 0,0 km/h (0 Bft)
24.10.2014 04:00 7,7 C 24,6 C 8,8 C 8,8 C 8,8 C 1,1 C 93 % 94 % 0 % 1024,3 hPa 0,0 l/m 0,0 km/h (0 Bft) N-NO 22 0 min 0,0 UV-I 6,6 C 8,8 C 0,0 km/h (0 Bft)
24.10.2014 04:05 7,8 C 24,6 C 8,8 C 8,8 C 8,8 C 1,0 C 93 % 94 % 0 % 1024,3 hPa 0,0 l/m 0,0 km/h (0 Bft) NW 315 0 min 0,0 UV-I 6,7 C 8,8 C 0,0 km/h (0 Bft)
24.10.2014 04:10 7,9 C 24,6 C 8,8 C 8,9 C 8,9 C 1,0 C 93 % 94 % 0 % 1024,4 hPa 0,0 l/m 0,0 km/h (0 Bft) SW 225 0 min 0,0 UV-I 6,8 C 8,9 C 0,0 km/h (0 Bft)
24.10.2014 04:15 7,9 C 24,6 C 8,9 C 8,9 C 8,9 C 1,0 C 93 % 94 % 0 % 1024,4 hPa 0,0 l/m 0,0 km/h (0 Bft) SW 225 0 min 0,0 UV-I 6,8 C 8,9 C 0,0 km/h (0 Bft)
24.10.2014 04:20 7,9 C 24,6 C 8,9 C 8,9 C 8,9 C 1,0 C 93 % 94 % 0 % 1024,4 hPa 0,0 l/m 0,0 km/h (0 Bft) O-NO 67 0 min 0,0 UV-I 6,8 C 8,9 C 0,0 km/h (0 Bft)
24.10.2014 04:25 7,9 C 24,6 C 8,9 C 8,9 C 8,9 C 1,0 C 93 % 94 % 0 % 1024,4 hPa 0,0 l/m 0,0 km/h (0 Bft) O-NO 67 0 min 0,0 UV-I 6,8 C 8,9 C 0,0 km/h (0 Bft)
24.10.2014 04:30 7,9 C 24,6 C 8,8 C 8,8 C 8,8 C 0,9 C 93 % 94 % 0 % 1024,4 hPa 0,0 l/m 0,0 km/h (0 Bft) O-NO 67 0 min 0,0 UV-I 6,8 C 8,8 C 0,0 km/h (0 Bft)
24.10.2014 04:35 7,9 C 24,6 C 8,9 C 8,7 C 8,7 C 0,8 C 93 % 94 % 0 % 1024,4 hPa 0,0 l/m 0,0 km/h (0 Bft) O-NO 67 0 min 0,0 UV-I 6,8 C 8,7 C 0,0 km/h (0 Bft)
24.10.2014 04:40 7,9 C 24,6 C 8,8 C 8,7 C 8,7 C 0,8 C 93 % 94 % 0 % 1024,4 hPa 0,0 l/m 0,0 km/h (0 Bft) O-NO 67 0 min 0,0 UV-I 6,8 C 8,7 C 0,0 km/h (0 Bft)
24.10.2014 04:45 7,9 C 24,6 C 8,8 C 8,6 C 8,6 C 0,7 C 93 % 94 % 0 % 1024,4 hPa 0,0 l/m 0,0 km/h (0 Bft) O-NO 67 0 min 0,0 UV-I 6,8 C 8,6 C 0,0 km/h (0 Bft)
24.10.2014 04:50 7,8 C 24,6 C 8,8 C 8,6 C 8,6 C 0,8 C 93 % 94 % 0 % 1024,2 hPa 0,0 l/m 0,0 km/h (0 Bft) W-NW 292 0 min 0,0 UV-I 6,7 C 8,6 C 0,0 km/h (0 Bft)
24.10.2014 04:55 7,7 C 24,6 C 8,8 C 8,7 C 8,7 C 1,0 C 93 % 94 % 0 % 1024,2 hPa 0,0 l/m 0,0 km/h (0 Bft) W-SW 247 0 min 0,0 UV-I 6,6 C 8,7 C 0,0 km/h (0 Bft)
24.10.2014 05:00 7,8 C 24,6 C 8,8 C 8,7 C 8,7 C 0,9 C 93 % 94 % 0 % 1024,2 hPa 0,0 l/m 0,0 km/h (0 Bft) NO 45 0 min 0,0 UV-I 6,7 C 8,7 C 0,0 km/h (0 Bft)
24.10.2014 05:05 7,9 C 24,6 C 8,9 C 8,8 C 8,8 C 0,9 C 93 % 94 % 0 % 1024,2 hPa 0,0 l/m 0,0 km/h (0 Bft) O-NO 67 0 min 0,0 UV-I 6,8 C 8,8 C 0,0 km/h (0 Bft)
24.10.2014 05:10 7,9 C 24,6 C 8,9 C 8,9 C 8,9 C 1,0 C 93 % 94 % 0 % 1024,2 hPa 0,0 l/m 0,0 km/h (0 Bft) W 270 0 min 0,0 UV-I 6,8 C 8,9 C 0,0 km/h (0 Bft)
24.10.2014 05:15 7,9 C 24,6 C 8,9 C 8,9 C 8,9 C 1,0 C 93 % 94 % 0 % 1024,2 hPa 0,0 l/m 0,0 km/h (0 Bft) W-SW 247 0 min 0,0 UV-I 6,8 C 8,9 C 0,0 km/h (0 Bft)
24.10.2014 05:20 7,9 C 24,6 C 8,9 C 8,9 C 8,9 C 1,0 C 93 % 94 % 0 % 1024,2 hPa 0,0 l/m 0,0 km/h (0 Bft) W-SW 247 0 min 0,0 UV-I 6,8 C 8,9 C 0,0 km/h (0 Bft)
24.10.2014 05:25 7,8 C 24,6 C 8,9 C 8,9 C 8,9 C 1,1 C 93 % 94 % 0 % 1024,2 hPa 0,0 l/m 0,0 km/h (0 Bft) W-SW 247 0 min 0,0 UV-I 6,7 C 8,9 C 0,0 km/h (0 Bft)
24.10.2014 05:30 7,8 C 24,6 C 9,0 C 8,9 C 8,9 C 1,1 C 93 % 94 % 0 % 1024,3 hPa 0,0 l/m 0,0 km/h (0 Bft) W-SW 247 0 min 0,0 UV-I 6,7 C 8,9 C 0,0 km/h (0 Bft)
24.10.2014 05:35 7,8 C 24,6 C 9,0 C 8,9 C 8,9 C 1,1 C 93 % 94 % 0 % 1024,3 hPa 0,0 l/m 0,0 km/h (0 Bft) W-SW 247 0 min 0,0 UV-I 6,7 C 8,9 C 0,0 km/h (0 Bft)
24.10.2014 05:40 7,9 C 24,6 C 9,0 C 8,9 C 8,9 C 1,0 C 93 % 94 % 0 % 1024,3 hPa 0,0 l/m 0,0 km/h (0 Bft) W-SW 247 0 min 0,0 UV-I 6,8 C 8,9 C 0,0 km/h (0 Bft)
24.10.2014 05:45 7,9 C 24,6 C 9,0 C 8,9 C 8,9 C 1,0 C 93 % 94 % 0 % 1024,3 hPa 0,0 l/m 0,0 km/h (0 Bft) W 270 0 min 0,0 UV-I 6,8 C 8,9 C 0,0 km/h (0 Bft)
24.10.2014 05:50 7,9 C 24,6 C 9,0 C 8,9 C 8,9 C 1,0 C 93 % 94 % 0 % 1024,1 hPa 0,0 l/m 0,0 km/h (0 Bft) O-SO 112 0 min 0,0 UV-I 6,8 C 8,9 C 0,0 km/h (0 Bft)
24.10.2014 05:55 7,9 C 24,6 C 9,0 C 8,9 C 8,9 C 1,0 C 93 % 94 % 0 % 1024,1 hPa 0,0 l/m 0,0 km/h (0 Bft) O-NO 67 0 min 0,0 UV-I 6,8 C 8,9 C 0,0 km/h (0 Bft)
24.10.2014 06:00 7,9 C 24,6 C 9,0 C 8,9 C 8,9 C 1,0 C 93 % 94 % 0 % 1024,1 hPa 0,0 l/m 0,0 km/h (0 Bft) O-NO 67 0 min 0,0 UV-I 6,8 C 8,9 C 0,0 km/h (0 Bft)
24.10.2014 06:05 7,9 C 24,6 C 9,0 C 9,0 C 9,0 C 1,1 C 93 % 94 % 0 % 1024,1 hPa 0,0 l/m 0,0 km/h (0 Bft) O-NO 67 0 min 0,0 UV-I 6,8 C 9,0 C 0,0 km/h (0 Bft)
24.10.2014 06:10 7,9 C 24,6 C 9,1 C 9,0 C 9,0 C 1,1 C 93 % 94 % 0 % 1024,0 hPa 0,0 l/m 0,0 km/h (0 Bft) N-NO 22 0 min 0,0 UV-I 6,8 C 9,0 C 0,0 km/h (0 Bft)
24.10.2014 06:15 8,0 C 24,6 C 9,1 C 9,0 C 9,0 C 1,0 C 93 % 94 % 0 % 1024,0 hPa 0,0 l/m 0,0 km/h (0 Bft) NW 315 0 min 0,0 UV-I 6,9 C 9,0 C 0,0 km/h (0 Bft)
24.10.2014 06:20 8,0 C 24,6 C 9,1 C 9,0 C 9,0 C 1,0 C 93 % 94 % 0 % 1024,0 hPa 0,0 l/m 0,0 km/h (0 Bft) SW 225 0 min 0,0 UV-I 6,9 C 9,0 C 0,0 km/h (0 Bft)
24.10.2014 06:25 8,0 C 24,6 C 9,0 C 9,0 C 9,0 C 1,0 C 93 % 94 % 0 % 1024,0 hPa 0,0 l/m 0,0 km/h (0 Bft) NW 315 0 min 0,0 UV-I 6,9 C 9,0 C 0,0 km/h (0 Bft)
24.10.2014 06:30 8,1 C 24,6 C 9,0 C 9,1 C 9,1 C 1,0 C 93 % 94 % 0 % 1024,5 hPa 0,0 l/m 0,0 km/h (0 Bft) O-NO 67 0 min 0,0 UV-I 7,0 C 9,1 C 0,0 km/h (0 Bft)
24.10.2014 06:35 8,1 C 24,6 C 9,1 C 9,1 C 9,1 C 1,0 C 93 % 94 % 0 % 1024,5 hPa 0,0 l/m 0,0 km/h (0 Bft) O 90 0 min 0,0 UV-I 7,0 C 9,1 C 0,0 km/h (0 Bft)
24.10.2014 06:42 8,0 C 24,6 C 9,1 C 9,2 C 9,2 C 1,2 C 93 % 94 % 0 % 1024,5 hPa 0,0 l/m 0,0 km/h (0 Bft) N 0 0 min 0,0 UV-I 6,9 C 9,2 C 0,0 km/h (0 Bft)
24.10.2014 06:45 8,1 C 24,6 C 9,1 C 9,2 C 9,2 C 1,1 C 93 % 94 % 0 % 1024,5 hPa 0,0 l/m 0,0 km/h (0 Bft) O-NO 67 0 min 0,0 UV-I 7,0 C 9,2 C 0,0 km/h (0 Bft)
24.10.2014 06:50 8,1 C 24,6 C 9,2 C 9,2 C 9,2 C 1,1 C 93 % 94 % 0 % 1024,5 hPa 0,0 l/m 0,0 km/h (0 Bft) S 180 0 min 0,0 UV-I 7,0 C 9,2 C 0,0 km/h (0 Bft)
24.10.2014 06:55 8,1 C 24,6 C 9,2 C 9,2 C 9,2 C 1,1 C 93 % 94 % 0 % 1024,5 hPa 0,0 l/m 0,0 km/h (0 Bft) SW 225 0 min 0,0 UV-I 7,0 C 9,2 C 0,0 km/h (0 Bft)
24.10.2014 07:00 8,1 C 24,6 C 9,2 C 9,2 C 9,2 C 1,1 C 93 % 94 % 0 % 1024,5 hPa 0,0 l/m 0,0 km/h (0 Bft) O-NO 67 0 min 0,0 UV-I 7,0 C 9,2 C 0,0 km/h (0 Bft)
24.10.2014 07:05 8,1 C 24,6 C 9,1 C 9,2 C 9,2 C 1,1 C 93 % 94 % 0 % 1024,5 hPa 0,0 l/m 0,3 km/h (0 Bft) O-SO 112 0 min 0,0 UV-I 7,0 C 9,2 C 1,9 km/h (1 Bft)
24.10.2014 07:10 8,0 C 24,6 C 9,1 C 9,1 C 9,1 C 1,1 C 93 % 94 % 0 % 1024,7 hPa 0,0 l/m 0,3 km/h (0 Bft) N 360 0 min 0,0 UV-I 6,9 C 9,1 C 0,0 km/h (0 Bft)
24.10.2014 07:15 8,0 C 24,6 C 9,1 C 9,0 C 9,0 C 1,0 C 93 % 94 % 0 % 1024,7 hPa 0,0 l/m 0,2 km/h (0 Bft) O-NO 67 0 min 0,0 UV-I 6,9 C 9,0 C 0,0 km/h (0 Bft)
24.10.2014 07:20 8,0 C 24,6 C 9,1 C 9,0 C 9,0 C 1,0 C 93 % 94 % 0 % 1024,7 hPa 0,0 l/m 0,0 km/h (0 Bft) W-SW 247 0 min 0,0 UV-I 6,9 C 9,0 C 0,0 km/h (0 Bft)
24.10.2014 07:25 8,0 C 24,6 C 9,1 C 9,0 C 9,0 C 1,0 C 93 % 94 % 0 % 1024,7 hPa 0,0 l/m 0,0 km/h (0 Bft) O 90 0 min 0,0 UV-I 6,9 C 9,0 C 0,0 km/h (0 Bft)
24.10.2014 07:30 8,0 C 24,6 C 9,1 C 9,0 C 9,0 C 1,0 C 93 % 94 % 0 % 1023,9 hPa 0,0 l/m 0,0 km/h (0 Bft) NO 45 0 min 0,0 UV-I 6,9 C 9,0 C 0,0 km/h (0 Bft)
24.10.2014 07:35 8,1 C 24,6 C 9,1 C 8,9 C 8,9 C 0,8 C 93 % 94 % 0 % 1023,9 hPa 0,0 l/m 0,0 km/h (0 Bft) O-NO 67 0 min 0,0 UV-I 7,0 C 8,9 C 0,0 km/h (0 Bft)
24.10.2014 07:40 8,1 C 24,6 C 9,2 C 8,9 C 8,9 C 0,8 C 93 % 94 % 0 % 1023,9 hPa 0,0 l/m 0,0 km/h (0 Bft) O-NO 67 0 min 0,0 UV-I 7,0 C 8,9 C 0,0 km/h (0 Bft)
24.10.2014 07:45 8,0 C 24,6 C 9,1 C 8,9 C 8,9 C 0,9 C 93 % 94 % 0 % 1023,9 hPa 0,0 l/m 0,3 km/h (0 Bft) O-NO 67 0 min 0,0 UV-I 6,9 C 8,9 C 0,0 km/h (0 Bft)
24.10.2014 07:50 8,0 C 24,6 C 9,0 C 8,9 C 8,9 C 0,9 C 93 % 94 % 0 % 1024,8 hPa 0,0 l/m 0,8 km/h (0 Bft) O-NO 67 0 min 0,0 UV-I 6,9 C 8,9 C 0,0 km/h (0 Bft)
24.10.2014 07:55 8,0 C 24,6 C 9,1 C 8,9 C 8,9 C 0,9 C 93 % 94 % 0 % 1024,8 hPa 0,0 l/m 0,6 km/h (0 Bft) O-NO 67 0 min 0,0 UV-I 6,9 C 8,9 C 4,0 km/h (1 Bft)
24.10.2014 08:00 7,9 C 24,6 C 9,1 C 8,9 C 8,9 C 1,0 C 93 % 94 % 26 % 1024,8 hPa 0,0 l/m 0,6 km/h (0 Bft) O 90 5 min 0,0 UV-I 6,8 C 8,9 C 2,3 km/h (1 Bft)
24.10.2014 08:05 7,9 C 24,6 C 9,1 C 8,9 C 8,9 C 1,0 C 93 % 94 % 26 % 1024,8 hPa 0,0 l/m 0,8 km/h (0 Bft) O-NO 67 5 min 0,0 UV-I 6,8 C 8,9 C 0,0 km/h (0 Bft)
24.10.2014 08:10 8,0 C 24,6 C 9,1 C 9,0 C 9,0 C 1,0 C 93 % 94 % 26 % 1024,6 hPa 0,0 l/m 0,3 km/h (0 Bft) O-SO 112 5 min 0,0 UV-I 6,9 C 9,0 C 0,0 km/h (0 Bft)
24.10.2014 08:15 8,0 C 24,5 C 9,1 C 9,0 C 9,0 C 1,0 C 93 % 94 % 26 % 1024,6 hPa 0,0 l/m 0,5 km/h (0 Bft) O-SO 112 5 min 0,0 UV-I 6,9 C 9,0 C 1,6 km/h (1 Bft)
24.10.2014 08:20 8,0 C 24,6 C 9,1 C 9,0 C 9,0 C 1,0 C 93 % 94 % 26 % 1024,6 hPa 0,0 l/m 0,5 km/h (0 Bft) NO 45 5 min 0,0 UV-I 6,9 C 9,0 C 2,9 km/h (1 Bft)
24.10.2014 08:25 7,9 C 24,5 C 9,1 C 9,0 C 9,0 C 1,1 C 93 % 94 % 29 % 1024,6 hPa 0,0 l/m 0,5 km/h (0 Bft) O-NO 67 5 min 0,0 UV-I 6,8 C 9,0 C 2,9 km/h (1 Bft)
24.10.2014 08:30 7,9 C 24,5 C 9,1 C 9,0 C 9,0 C 1,1 C 93 % 94 % 29 % 1024,8 hPa 0,0 l/m 1,1 km/h (1 Bft) O-SO 112 5 min 0,0 UV-I 6,8 C 9,0 C 0,0 km/h (0 Bft)
24.10.2014 08:35 7,9 C 24,5 C 9,2 C 9,0 C 9,0 C 1,1 C 93 % 94 % 29 % 1024,8 hPa 0,0 l/m 1,1 km/h (1 Bft) O-SO 112 5 min 0,0 UV-I 6,8 C 9,0 C 0,0 km/h (0 Bft)
24.10.2014 08:40 7,9 C 24,5 C 9,2 C 9,2 C 9,2 C 1,3 C 93 % 94 % 34 % 1024,8 hPa 0,0 l/m 0,6 km/h (0 Bft) W 270 5 min 0,0 UV-I 6,8 C 9,2 C 0,0 km/h (0 Bft)
24.10.2014 08:45 7,9 C 24,5 C 9,2 C 9,3 C 9,3 C 1,4 C 93 % 94 % 37 % 1024,8 hPa 0,0 l/m 0,5 km/h (0 Bft) O-NO 67 5 min 0,0 UV-I 6,8 C 9,3 C 4,3 km/h (1 Bft)
24.10.2014 08:50 8,0 C 24,4 C 9,2 C 9,5 C 9,5 C 1,5 C 93 % 94 % 39 % 1024,1 hPa 0,0 l/m 0,0 km/h (0 Bft) NW 315 5 min 0,0 UV-I 6,9 C 9,5 C 0,0 km/h (0 Bft)
24.10.2014 08:55 8,1 C 24,4 C 9,2 C 9,7 C 9,7 C 1,6 C 93 % 94 % 42 % 1024,1 hPa 0,0 l/m 0,0 km/h (0 Bft) N-NO 22 5 min 0,0 UV-I 7,0 C 9,7 C 0,0 km/h (0 Bft)
24.10.2014 09:00 8,1 C 24,4 C 9,2 C 9,7 C 9,7 C 1,6 C 93 % 94 % 42 % 1024,1 hPa 0,0 l/m 0,0 km/h (0 Bft) S-SW 202 0 min 0,0 UV-I 7,0 C 9,7 C 0,0 km/h (0 Bft)
24.10.2014 09:05 8,0 C 24,4 C 9,3 C 9,7 C 9,7 C 1,7 C 93 % 94 % 45 % 1024,1 hPa 0,0 l/m 0,0 km/h (0 Bft) W-NW 292 0 min 0,0 UV-I 6,9 C 9,7 C 0,0 km/h (0 Bft)
24.10.2014 09:10 8,0 C 24,4 C 9,5 C 9,9 C 9,9 C 1,9 C 93 % 94 % 50 % 1024,8 hPa 0,0 l/m 0,0 km/h (0 Bft) NO 45 5 min 0,0 UV-I 6,9 C 9,9 C 0,0 km/h (0 Bft)
24.10.2014 09:15 8,0 C 24,4 C 9,5 C 10,1 C 10,1 C 2,1 C 93 % 94 % 55 % 1024,8 hPa 0,0 l/m 0,0 km/h (0 Bft) O-NO 67 0 min 0,0 UV-I 6,9 C 10,1 C 0,0 km/h (0 Bft)
24.10.2014 09:20 8,1 C 24,4 C 9,5 C 10,3 C 10,3 C 2,2 C 93 % 93 % 58 % 1024,8 hPa 0,0 l/m 0,0 km/h (0 Bft) NO 45 0 min 0,0 UV-I 7,0 C 10,3 C 0,0 km/h (0 Bft)
24.10.2014 09:25 8,1 C 24,3 C 9,5 C 10,3 C 10,3 C 2,2 C 93 % 94 % 58 % 1024,8 hPa 0,0 l/m 0,0 km/h (0 Bft) W-SW 247 0 min 0,0 UV-I 7,0 C 10,3 C 0,0 km/h (0 Bft)
24.10.2014 09:30 8,3 C 24,4 C 9,6 C 10,6 C 10,6 C 2,3 C 93 % 94 % 61 % 1024,8 hPa 0,0 l/m 0,0 km/h (0 Bft) W-SW 247 0 min 0,0 UV-I 7,2 C 10,6 C 0,0 km/h (0 Bft)
24.10.2014 09:35 8,2 C 24,4 C 9,6 C 10,6 C 10,6 C 2,4 C 93 % 94 % 63 % 1024,8 hPa 0,0 l/m 0,0 km/h (0 Bft) W-SW 247 0 min 0,0 UV-I 7,1 C 10,6 C 0,0 km/h (0 Bft)
24.10.2014 09:42 8,3 C 24,2 C 9,7 C 10,7 C 10,7 C 2,4 C 93 % 94 % 63 % 1024,8 hPa 0,0 l/m 0,2 km/h (0 Bft) N 0 0 min 0,0 UV-I 7,2 C 10,7 C 0,0 km/h (0 Bft)
24.10.2014 09:45 8,3 C 24,2 C 9,7 C 10,8 C 10,8 C 2,5 C 93 % 94 % 66 % 1024,8 hPa 0,0 l/m 0,2 km/h (0 Bft) SO 135 0 min 0,0 UV-I 7,2 C 10,8 C 1,6 km/h (1 Bft)
24.10.2014 09:50 8,2 C 24,2 C 9,8 C 10,8 C 10,8 C 2,6 C 93 % 94 % 68 % 1024,6 hPa 0,0 l/m 0,2 km/h (0 Bft) O-NO 67 0 min 0,0 UV-I 7,1 C 10,8 C 1,6 km/h (1 Bft)
24.10.2014 09:55 8,3 C 24,2 C 9,7 C 10,7 C 10,7 C 2,4 C 93 % 94 % 63 % 1024,6 hPa 0,0 l/m 1,0 km/h (0 Bft) O-NO 67 0 min 0,0 UV-I 7,2 C 10,7 C 1,6 km/h (1 Bft)
24.10.2014 10:00 8,4 C 24,3 C 10,0 C 10,7 C 10,7 C 2,3 C 93 % 94 % 61 % 1024,6 hPa 0,0 l/m 2,3 km/h (1 Bft) N-NO 22 0 min 0,0 UV-I 7,3 C 10,7 C 4,8 km/h (1 Bft)
24.10.2014 10:05 8,5 C 24,2 C 10,1 C 10,7 C 10,7 C 2,2 C 93 % 93 % 58 % 1024,6 hPa 0,0 l/m 2,4 km/h (1 Bft) O 90 0 min 0,0 UV-I 7,4 C 10,7 C 5,8 km/h (2 Bft)
24.10.2014 10:10 8,7 C 24,3 C 10,0 C 10,8 C 10,8 C 2,1 C 93 % 93 % 55 % 1024,9 hPa 0,0 l/m 2,9 km/h (1 Bft) O 90 0 min 0,0 UV-I 7,6 C 10,8 C 4,7 km/h (1 Bft)
24.10.2014 10:15 8,8 C 24,2 C 10,1 C 10,9 C 10,9 C 2,1 C 93 % 93 % 55 % 1024,9 hPa 0,0 l/m 2,7 km/h (1 Bft) O-NO 67 0 min 0,0 UV-I 7,7 C 10,9 C 7,1 km/h (2 Bft)
24.10.2014 10:20 9,0 C 24,2 C 10,2 C 11,1 C 11,1 C 2,1 C 93 % 93 % 55 % 1024,9 hPa 0,0 l/m 2,4 km/h (1 Bft) NO 45 0 min 0,0 UV-I 7,9 C 11,1 C 2,4 km/h (1 Bft)
24.10.2014 10:25 9,1 C 24,2 C 10,3 C 11,2 C 11,2 C 2,1 C 93 % 93 % 55 % 1024,9 hPa 0,0 l/m 3,1 km/h (1 Bft) NO 45 0 min 0,0 UV-I 8,0 C 11,2 C 0,0 km/h (0 Bft)
24.10.2014 10:30 9,2 C 24,2 C 10,5 C 11,4 C 11,4 C 2,2 C 92 % 93 % 58 % 1025,0 hPa 0,0 l/m 3,1 km/h (1 Bft) O-NO 67 0 min 0,0 UV-I 8,0 C 11,4 C 3,5 km/h (1 Bft)
24.10.2014 10:35 9,5 C 24,2 C 10,4 C 11,7 C 11,7 C 2,2 C 92 % 93 % 58 % 1025,0 hPa 0,0 l/m 3,7 km/h (1 Bft) O-SO 112 0 min 0,0 UV-I 8,3 C 11,7 C 6,9 km/h (2 Bft)
24.10.2014 10:40 9,4 C 24,1 C 10,4 C 11,6 C 11,6 C 2,2 C 91 % 93 % 58 % 1025,0 hPa 0,0 l/m 5,0 km/h (1 Bft) O-NO 67 0 min 0,0 UV-I 8,0 C 11,6 C 5,8 km/h (2 Bft)
24.10.2014 10:45 9,4 C 24,1 C 10,5 C 11,4 C 11,4 C 2,0 C 89 % 93 % 53 % 1025,0 hPa 0,0 l/m 5,0 km/h (1 Bft) O 90 0 min 0,0 UV-I 7,7 C 11,4 C 9,2 km/h (2 Bft)
24.10.2014 10:50 9,5 C 24,2 C 10,5 C 11,4 C 11,4 C 1,9 C 88 % 93 % 50 % 1025,0 hPa 0,0 l/m 4,2 km/h (1 Bft) NO 45 0 min 0,0 UV-I 7,6 C 11,4 C 6,3 km/h (2 Bft)
24.10.2014 10:55 9,7 C 24,1 C 10,5 C 11,4 C 11,4 C 1,7 C 87 % 93 % 45 % 1025,0 hPa 0,0 l/m 4,0 km/h (1 Bft) O 90 0 min 0,0 UV-I 7,6 C 11,4 C 9,5 km/h (2 Bft)
24.10.2014 11:00 9,6 C 24,1 C 10,4 C 11,3 C 11,3 C 1,7 C 86 % 93 % 45 % 1025,0 hPa 0,0 l/m 3,7 km/h (1 Bft) SO 135 0 min 0,0 UV-I 7,4 C 11,3 C 4,3 km/h (1 Bft)
24.10.2014 11:05 9,7 C 24,1 C 10,5 C 11,3 C 11,3 C 1,6 C 86 % 93 % 42 % 1025,0 hPa 0,0 l/m 3,5 km/h (1 Bft) O 90 0 min 0,0 UV-I 7,5 C 11,3 C 3,2 km/h (1 Bft)
24.10.2014 11:10 9,9 C 24,1 C 10,5 C 11,4 C 11,4 C 1,5 C 86 % 93 % 39 % 1025,0 hPa 0,0 l/m 2,9 km/h (1 Bft) O-NO 67 0 min 0,0 UV-I 7,7 C 11,4 C 4,0 km/h (1 Bft)
24.10.2014 11:15 9,9 C 24,1 C 10,5 C 11,4 C 11,4 C 1,5 C 85 % 93 % 39 % 1025,0 hPa 0,0 l/m 2,9 km/h (1 Bft) O-NO 67 0 min 0,0 UV-I 7,5 C 11,4 C 3,5 km/h (1 Bft)
24.10.2014 11:20 10,0 C 24,1 C 10,5 C 11,5 C 11,5 C 1,5 C 85 % 93 % 39 % 1025,0 hPa 0,0 l/m 3,1 km/h (1 Bft) NO 45 0 min 0,0 UV-I 7,6 C 11,5 C 2,9 km/h (1 Bft)
24.10.2014 11:25 10,2 C 24,1 C 10,6 C 11,7 C 11,7 C 1,5 C 84 % 93 % 39 % 1025,0 hPa 0,0 l/m 3,1 km/h (1 Bft) O-NO 67 0 min 0,0 UV-I 7,6 C 11,7 C 4,3 km/h (1 Bft)
24.10.2014 11:30 10,2 C 24,1 C 10,7 C 11,7 C 11,7 C 1,5 C 84 % 93 % 39 % 1024,6 hPa 0,0 l/m 3,4 km/h (1 Bft) O-NO 67 0 min 0,0 UV-I 7,6 C 11,7 C 1,6 km/h (1 Bft)
24.10.2014 11:35 10,4 C 24,2 C 10,8 C 12,0 C 12,0 C 1,6 C 84 % 94 % 42 % 1024,6 hPa 0,0 l/m 3,2 km/h (1 Bft) O-NO 67 0 min 0,0 UV-I 7,8 C 12,0 C 3,9 km/h (1 Bft)
24.10.2014 11:40 10,4 C 24,2 C 10,8 C 12,3 C 12,3 C 1,9 C 84 % 94 % 50 % 1024,6 hPa 0,0 l/m 2,6 km/h (1 Bft) S 180 0 min 0,0 UV-I 7,8 C 12,3 C 3,9 km/h (1 Bft)
24.10.2014 11:45 10,4 C 24,2 C 10,8 C 12,2 C 12,2 C 1,8 C 83 % 94 % 47 % 1024,6 hPa 0,0 l/m 3,1 km/h (1 Bft) O-NO 67 0 min 0,0 UV-I 7,6 C 12,2 C 6,6 km/h (2 Bft)
24.10.2014 11:50 10,4 C 24,1 C 11,1 C 12,1 C 12,1 C 1,7 C 83 % 93 % 45 % 1024,8 hPa 0,0 l/m 2,7 km/h (1 Bft) O-NO 67 0 min 0,0 UV-I 7,6 C 12,1 C 0,0 km/h (0 Bft)
24.10.2014 11:55 10,5 C 24,1 C 11,1 C 12,3 C 12,3 C 1,8 C 83 % 93 % 47 % 1024,8 hPa 0,0 l/m 2,3 km/h (1 Bft) O-NO 67 0 min 0,0 UV-I 7,7 C 12,3 C 4,3 km/h (1 Bft)
24.10.2014 12:00 10,6 C 24,2 C 11,2 C 12,4 C 12,4 C 1,8 C 83 % 93 % 47 % 1024,8 hPa 0,0 l/m 1,4 km/h (1 Bft) NO 45 0 min 0,0 UV-I 7,8 C 12,4 C 0,0 km/h (0 Bft)
24.10.2014 12:05 10,7 C 24,2 C 11,2 C 12,4 C 12,4 C 1,7 C 83 % 93 % 45 % 1024,8 hPa 0,0 l/m 2,6 km/h (1 Bft) O-NO 67 0 min 0,0 UV-I 7,9 C 12,4 C 4,2 km/h (1 Bft)
24.10.2014 12:10 10,8 C 24,1 C 11,3 C 12,5 C 12,5 C 1,7 C 82 % 93 % 45 % 1024,9 hPa 0,0 l/m 2,7 km/h (1 Bft) O 90 0 min 0,0 UV-I 7,9 C 12,5 C 5,5 km/h (1 Bft)
24.10.2014 12:15 10,8 C 24,2 C 11,2 C 12,4 C 12,4 C 1,6 C 82 % 93 % 42 % 1024,9 hPa 0,0 l/m 3,1 km/h (1 Bft) O-NO 67 0 min 0,0 UV-I 7,9 C 12,4 C 4,2 km/h (1 Bft)
24.10.2014 12:20 10,8 C 24,1 C 11,1 C 12,2 C 12,2 C 1,4 C 81 % 93 % 37 % 1024,9 hPa 0,0 l/m 3,7 km/h (1 Bft) O-NO 67 0 min 0,0 UV-I 7,7 C 12,2 C 2,9 km/h (1 Bft)
24.10.2014 12:25 10,9 C 24,2 C 10,8 C 12,1 C 12,1 C 1,2 C 81 % 92 % 32 % 1024,9 hPa 0,0 l/m 3,2 km/h (1 Bft) O-NO 67 0 min 0,0 UV-I 7,8 C 12,1 C 0,0 km/h (0 Bft)
24.10.2014 12:30 10,9 C 24,1 C 10,9 C 12,9 C 12,9 C 2,0 C 80 % 92 % 53 % 1024,6 hPa 0,0 l/m 3,5 km/h (1 Bft) O-NO 67 0 min 0,0 UV-I 7,6 C 12,9 C 4,8 km/h (1 Bft)
24.10.2014 12:35 11,1 C 24,1 C 11,0 C 13,8 C 13,8 C 2,7 C 80 % 92 % 71 % 1024,6 hPa 0,0 l/m 3,9 km/h (1 Bft) O-NO 67 0 min 0,0 UV-I 7,8 C 13,8 C 4,2 km/h (1 Bft)
24.10.2014 12:42 11,0 C 24,1 C 11,0 C 15,1 C 15,1 C 4,1 C 80 % 92 % 100 % 1024,6 hPa 0,0 l/m 3,4 km/h (1 Bft) N 0 7 min 0,0 UV-I 7,7 C 15,1 C 2,3 km/h (1 Bft)
24.10.2014 12:45 11,1 C 24,1 C 10,9 C 15,1 C 15,1 C 4,0 C 80 % 92 % 100 % 1024,6 hPa 0,0 l/m 2,6 km/h (1 Bft) O-NO 67 3 min 0,0 UV-I 7,8 C 15,1 C 2,9 km/h (1 Bft)
24.10.2014 12:50 11,2 C 24,1 C 11,1 C 16,1 C 16,1 C 4,9 C 81 % 92 % 100 % 1024,0 hPa 0,0 l/m 1,8 km/h (1 Bft) O-NO 67 5 min 0,0 UV-I 8,1 C 16,1 C 2,1 km/h (1 Bft)
24.10.2014 12:55 11,3 C 24,1 C 11,1 C 16,5 C 16,5 C 5,2 C 80 % 92 % 100 % 1024,0 hPa 0,0 l/m 2,1 km/h (1 Bft) O 90 5 min 0,0 UV-I 8,0 C 16,5 C 4,7 km/h (1 Bft)
24.10.2014 13:00 11,4 C 24,1 C 11,2 C 16,7 C 16,7 C 5,3 C 80 % 92 % 100 % 1024,0 hPa 0,0 l/m 3,1 km/h (1 Bft) O-NO 67 5 min 0,0 UV-I 8,1 C 16,7 C 2,1 km/h (1 Bft)
24.10.2014 13:05 11,5 C 24,1 C 11,3 C 17,2 C 17,2 C 5,7 C 80 % 92 % 100 % 1024,0 hPa 0,0 l/m 2,1 km/h (1 Bft) SW 225 5 min 0,0 UV-I 8,2 C 17,2 C 0,0 km/h (0 Bft)
24.10.2014 13:10 11,5 C 24,1 C 11,3 C 17,5 C 17,5 C 6,0 C 80 % 92 % 100 % 1024,1 hPa 0,0 l/m 1,1 km/h (1 Bft) O-NO 67 5 min 0,0 UV-I 8,2 C 17,5 C 0,0 km/h (0 Bft)
24.10.2014 13:15 11,4 C 24,1 C 11,3 C 16,4 C 16,4 C 5,0 C 80 % 92 % 100 % 1024,1 hPa 0,0 l/m 0,8 km/h (0 Bft) W 270 5 min 0,0 UV-I 8,1 C 16,4 C 0,0 km/h (0 Bft)
24.10.2014 13:20 11,4 C 24,1 C 11,3 C 15,5 C 15,5 C 4,1 C 80 % 92 % 100 % 1024,1 hPa 0,0 l/m 0,0 km/h (0 Bft) W 270 5 min 0,0 UV-I 8,1 C 15,5 C 1,9 km/h (1 Bft)
24.10.2014 13:25 11,4 C 24,1 C 11,4 C 15,7 C 15,7 C 4,3 C 80 % 92 % 100 % 1024,1 hPa 0,0 l/m 1,0 km/h (0 Bft) O-NO 67 5 min 0,0 UV-I 8,1 C 15,7 C 4,8 km/h (1 Bft)
24.10.2014 13:30 11,7 C 24,1 C 11,4 C 15,0 C 15,0 C 3,3 C 78 % 92 % 87 % 1024,0 hPa 0,0 l/m 3,4 km/h (1 Bft) O-NO 67 5 min 0,0 UV-I 8,0 C 15,0 C 4,0 km/h (1 Bft)
24.10.2014 13:35 11,7 C 24,2 C 11,3 C 14,3 C 14,3 C 2,6 C 78 % 91 % 68 % 1024,0 hPa 0,0 l/m 3,7 km/h (1 Bft) O-NO 67 0 min 0,0 UV-I 8,0 C 14,3 C 4,2 km/h (1 Bft)
24.10.2014 13:40 11,7 C 24,2 C 11,3 C 13,6 C 13,6 C 1,9 C 78 % 91 % 50 % 1024,0 hPa 0,0 l/m 2,9 km/h (1 Bft) O-NO 67 0 min 0,0 UV-I 8,0 C 13,6 C 4,8 km/h (1 Bft)
24.10.2014 13:45 11,9 C 24,1 C 11,5 C 13,6 C 13,6 C 1,7 C 77 % 91 % 45 % 1024,0 hPa 0,0 l/m 3,2 km/h (1 Bft) O-NO 67 0 min 0,0 UV-I 8,0 C 13,6 C 3,1 km/h (1 Bft)
24.10.2014 13:50 11,9 C 24,1 C 11,7 C 13,6 C 13,6 C 1,7 C 77 % 91 % 45 % 1023,6 hPa 0,0 l/m 3,7 km/h (1 Bft) O-NO 67 0 min 0,0 UV-I 8,0 C 13,6 C 4,2 km/h (1 Bft)
24.10.2014 13:55 12,0 C 24,1 C 11,8 C 13,6 C 13,6 C 1,6 C 77 % 91 % 42 % 1023,6 hPa 0,0 l/m 4,0 km/h (1 Bft) O-NO 67 0 min 0,0 UV-I 8,1 C 13,6 C 6,1 km/h (2 Bft)
24.10.2014 14:00 12,0 C 24,1 C 11,9 C 13,4 C 13,4 C 1,4 C 77 % 91 % 37 % 1023,6 hPa 0,0 l/m 4,0 km/h (1 Bft) NO 45 0 min 0,0 UV-I 8,1 C 13,4 C 4,7 km/h (1 Bft)
24.10.2014 14:05 12,0 C 24,1 C 11,8 C 13,4 C 13,4 C 1,4 C 77 % 91 % 37 % 1023,6 hPa 0,0 l/m 3,2 km/h (1 Bft) O-NO 67 0 min 0,0 UV-I 8,1 C 13,4 C 3,1 km/h (1 Bft)
24.10.2014 14:10 12,1 C 24,2 C 12,0 C 13,7 C 13,7 C 1,6 C 77 % 91 % 42 % 1023,2 hPa 0,0 l/m 1,3 km/h (1 Bft) S-SO 157 0 min 0,0 UV-I 8,2 C 13,7 C 0,0 km/h (0 Bft)
24.10.2014 14:15 12,3 C 24,2 C 12,2 C 13,9 C 13,9 C 1,6 C 77 % 90 % 42 % 1023,2 hPa 0,0 l/m 1,4 km/h (1 Bft) O-NO 67 0 min 0,0 UV-I 8,4 C 13,9 C 2,7 km/h (1 Bft)
24.10.2014 14:20 12,4 C 24,2 C 12,3 C 14,2 C 14,2 C 1,8 C 77 % 90 % 47 % 1023,2 hPa 0,0 l/m 2,7 km/h (1 Bft) O-SO 112 0 min 0,0 UV-I 8,5 C 14,2 C 3,2 km/h (1 Bft)
24.10.2014 14:25 12,7 C 24,2 C 12,4 C 14,4 C 14,4 C 1,7 C 76 % 90 % 45 % 1023,2 hPa 0,0 l/m 3,1 km/h (1 Bft) NO 45 0 min 0,0 UV-I 8,6 C 14,4 C 2,9 km/h (1 Bft)
24.10.2014 14:30 12,7 C 24,2 C 12,4 C 14,5 C 14,5 C 1,8 C 76 % 90 % 47 % 1023,3 hPa 0,0 l/m 3,2 km/h (1 Bft) NO 45 0 min 0,0 UV-I 8,6 C 14,5 C 3,9 km/h (1 Bft)
24.10.2014 14:35 12,7 C 24,2 C 12,4 C 14,4 C 14,4 C 1,7 C 76 % 90 % 45 % 1023,3 hPa 0,0 l/m 2,4 km/h (1 Bft) NW 315 0 min 0,0 UV-I 8,6 C 14,4 C 1,9 km/h (1 Bft)
24.10.2014 14:40 12,7 C 24,2 C 12,5 C 14,3 C 14,3 C 1,6 C 75 % 89 % 42 % 1023,3 hPa 0,0 l/m 3,4 km/h (1 Bft) O-NO 67 0 min 0,0 UV-I 8,4 C 14,3 C 5,8 km/h (2 Bft)
24.10.2014 14:45 12,8 C 24,1 C 12,5 C 14,1 C 14,1 C 1,3 C 74 % 89 % 34 % 1023,3 hPa 0,0 l/m 4,2 km/h (1 Bft) O-NO 67 0 min 0,0 UV-I 8,3 C 14,1 C 4,3 km/h (1 Bft)
24.10.2014 14:50 12,8 C 24,1 C 12,7 C 14,0 C 14,0 C 1,2 C 74 % 89 % 32 % 1022,9 hPa 0,0 l/m 4,3 km/h (1 Bft) O 90 0 min 0,0 UV-I 8,3 C 14,0 C 3,4 km/h (1 Bft)
24.10.2014 14:55 12,7 C 24,1 C 12,8 C 14,0 C 14,0 C 1,3 C 75 % 89 % 34 % 1022,9 hPa 0,0 l/m 4,2 km/h (1 Bft) O-NO 67 0 min 0,0 UV-I 8,4 C 14,0 C 6,3 km/h (2 Bft)
24.10.2014 15:00 12,8 C 24,1 C 12,9 C 14,2 C 14,2 C 1,4 C 75 % 89 % 37 % 1022,9 hPa 0,0 l/m 3,5 km/h (1 Bft) O-NO 67 0 min 0,0 UV-I 8,5 C 14,2 C 7,1 km/h (2 Bft)
24.10.2014 15:05 12,9 C 24,1 C 12,9 C 14,1 C 14,1 C 1,2 C 75 % 89 % 32 % 1022,9 hPa 0,0 l/m 3,2 km/h (1 Bft) O-SO 112 0 min 0,0 UV-I 8,6 C 14,1 C 2,9 km/h (1 Bft)
24.10.2014 15:10 12,8 C 24,1 C 12,8 C 14,1 C 14,1 C 1,3 C 75 % 88 % 34 % 1022,9 hPa 0,0 l/m 3,2 km/h (1 Bft) O-NO 67 0 min 0,0 UV-I 8,5 C 14,1 C 8,4 km/h (2 Bft)
24.10.2014 15:15 12,8 C 24,1 C 12,8 C 14,1 C 14,1 C 1,3 C 75 % 88 % 34 % 1022,9 hPa 0,0 l/m 3,2 km/h (1 Bft) O-NO 67 0 min 0,0 UV-I 8,5 C 14,1 C 2,3 km/h (1 Bft)
24.10.2014 15:20 12,9 C 24,1 C 12,8 C 14,2 C 14,2 C 1,3 C 75 % 88 % 34 % 1022,9 hPa 0,0 l/m 2,7 km/h (1 Bft) N-NO 22 0 min 0,0 UV-I 8,6 C 14,2 C 5,1 km/h (1 Bft)
24.10.2014 15:25 12,9 C 24,1 C 12,9 C 14,2 C 14,2 C 1,3 C 75 % 88 % 34 % 1022,9 hPa 0,0 l/m 2,7 km/h (1 Bft) O 90 0 min 0,0 UV-I 8,6 C 14,2 C 3,1 km/h (1 Bft)
24.10.2014 15:30 13,0 C 24,1 C 12,9 C 14,4 C 14,4 C 1,4 C 74 % 88 % 37 % 1022,9 hPa 0,0 l/m 3,2 km/h (1 Bft) O-NO 67 0 min 0,0 UV-I 8,5 C 14,4 C 6,0 km/h (2 Bft)
24.10.2014 15:35 13,1 C 24,1 C 12,9 C 14,4 C 14,4 C 1,3 C 73 % 87 % 34 % 1022,9 hPa 0,0 l/m 3,4 km/h (1 Bft) O-NO 67 0 min 0,0 UV-I 8,4 C 14,4 C 5,0 km/h (1 Bft)
24.10.2014 15:42 13,1 C 24,1 C 12,9 C 15,0 C 15,0 C 1,9 C 74 % 88 % 50 % 1022,9 hPa 0,0 l/m 3,2 km/h (1 Bft) N 0 0 min 0,0 UV-I 8,6 C 15,0 C 1,6 km/h (1 Bft)
24.10.2014 15:45 13,1 C 24,1 C 12,9 C 15,6 C 15,6 C 2,5 C 74 % 88 % 66 % 1022,9 hPa 0,0 l/m 1,9 km/h (1 Bft) NO 45 0 min 0,0 UV-I 8,6 C 15,6 C 0,0 km/h (0 Bft)
24.10.2014 15:50 13,2 C 24,1 C 13,1 C 17,0 C 17,0 C 3,8 C 75 % 88 % 100 % 1022,8 hPa 0,0 l/m 0,5 km/h (0 Bft) O 90 5 min 0,0 UV-I 8,9 C 17,0 C 0,0 km/h (0 Bft)
24.10.2014 15:55 13,3 C 24,1 C 13,1 C 17,1 C 17,1 C 3,8 C 75 % 89 % 100 % 1022,8 hPa 0,0 l/m 0,2 km/h (0 Bft) N-NO 22 5 min 0,0 UV-I 9,0 C 17,1 C 0,0 km/h (0 Bft)
24.10.2014 16:00 13,3 C 24,1 C 13,1 C 17,2 C 17,2 C 3,9 C 74 % 88 % 100 % 1022,8 hPa 0,0 l/m 0,2 km/h (0 Bft) O-NO 67 5 min 0,0 UV-I 8,8 C 17,2 C 0,0 km/h (0 Bft)
24.10.2014 16:05 13,4 C 24,2 C 13,3 C 17,9 C 17,9 C 4,5 C 74 % 89 % 100 % 1022,8 hPa 0,0 l/m 0,3 km/h (0 Bft) O-NO 67 5 min 0,0 UV-I 8,9 C 17,9 C 1,6 km/h (1 Bft)
24.10.2014 16:10 13,4 C 24,2 C 13,3 C 18,4 C 18,4 C 5,0 C 74 % 89 % 100 % 1022,5 hPa 0,0 l/m 0,6 km/h (0 Bft) O-NO 67 5 min 0,0 UV-I 8,9 C 18,4 C 2,1 km/h (1 Bft)
24.10.2014 16:15 13,3 C 24,2 C 13,2 C 18,3 C 18,3 C 5,0 C 75 % 89 % 100 % 1022,5 hPa 0,0 l/m 1,8 km/h (1 Bft) O 90 5 min 0,0 UV-I 9,0 C 18,3 C 4,5 km/h (1 Bft)
24.10.2014 16:20 13,1 C 24,2 C 13,1 C 17,7 C 17,7 C 4,6 C 76 % 89 % 100 % 1022,5 hPa 0,0 l/m 3,2 km/h (1 Bft) O-NO 67 5 min 0,0 UV-I 9,0 C 17,7 C 3,5 km/h (1 Bft)
24.10.2014 16:25 13,1 C 24,2 C 12,8 C 17,2 C 17,2 C 4,1 C 76 % 88 % 100 % 1022,5 hPa 0,0 l/m 3,7 km/h (1 Bft) O-NO 67 5 min 0,0 UV-I 9,0 C 17,2 C 4,5 km/h (1 Bft)
24.10.2014 16:30 12,9 C 24,2 C 12,5 C 16,5 C 16,5 C 3,6 C 77 % 88 % 95 % 1022,2 hPa 0,0 l/m 4,7 km/h (1 Bft) O-NO 67 5 min 0,0 UV-I 9,0 C 16,5 C 5,8 km/h (2 Bft)
24.10.2014 16:35 12,9 C 24,2 C 12,5 C 16,0 C 16,0 C 3,1 C 77 % 88 % 82 % 1022,2 hPa 0,0 l/m 5,1 km/h (1 Bft) O-SO 112 5 min 0,0 UV-I 9,0 C 16,0 C 6,0 km/h (2 Bft)
24.10.2014 16:40 12,7 C 24,2 C 12,4 C 15,6 C 15,6 C 2,9 C 78 % 88 % 76 % 1022,2 hPa 0,0 l/m 4,8 km/h (1 Bft) O 90 5 min 0,0 UV-I 9,0 C 15,6 C 3,4 km/h (1 Bft)
24.10.2014 16:45 12,7 C 24,2 C 12,2 C 15,5 C 15,5 C 2,8 C 78 % 88 % 74 % 1022,2 hPa 0,0 l/m 4,3 km/h (1 Bft) O-NO 67 5 min 0,0 UV-I 9,0 C 15,5 C 5,3 km/h (1 Bft)
24.10.2014 16:50 12,6 C 24,2 C 12,1 C 14,8 C 14,8 C 2,2 C 78 % 88 % 58 % 1021,9 hPa 0,0 l/m 3,9 km/h (1 Bft) O 90 5 min 0,0 UV-I 8,9 C 14,8 C 3,9 km/h (1 Bft)
24.10.2014 16:55 12,5 C 24,2 C 12,0 C 14,4 C 14,4 C 1,9 C 78 % 88 % 50 % 1021,9 hPa 0,0 l/m 4,0 km/h (1 Bft) O-NO 67 5 min 0,0 UV-I 8,8 C 14,4 C 5,5 km/h (1 Bft)
24.10.2014 17:00 12,5 C 24,2 C 11,9 C 14,2 C 14,2 C 1,7 C 79 % 88 % 45 % 1021,9 hPa 0,0 l/m 3,5 km/h (1 Bft) O-NO 67 5 min 0,0 UV-I 9,0 C 14,2 C 3,4 km/h (1 Bft)
24.10.2014 17:05 12,3 C 24,2 C 11,9 C 14,0 C 14,0 C 1,7 C 79 % 89 % 45 % 1021,9 hPa 0,0 l/m 3,2 km/h (1 Bft) O-NO 67 5 min 0,0 UV-I 8,8 C 14,0 C 2,1 km/h (1 Bft)
24.10.2014 17:10 12,1 C 24,2 C 11,7 C 13,6 C 13,6 C 1,5 C 80 % 89 % 39 % 1022,6 hPa 0,0 l/m 2,6 km/h (1 Bft) O 90 5 min 0,0 UV-I 8,8 C 13,6 C 5,0 km/h (1 Bft)
24.10.2014 17:15 12,1 C 24,2 C 11,7 C 13,2 C 13,2 C 1,1 C 81 % 89 % 29 % 1022,6 hPa 0,0 l/m 3,1 km/h (1 Bft) O-NO 67 5 min 0,0 UV-I 8,9 C 13,2 C 4,2 km/h (1 Bft)
24.10.2014 17:20 11,8 C 24,3 C 11,6 C 12,7 C 12,7 C 0,9 C 81 % 89 % 24 % 1022,6 hPa 0,0 l/m 3,9 km/h (1 Bft) O-NO 67 5 min 0,0 UV-I 8,6 C 12,7 C 4,0 km/h (1 Bft)
24.10.2014 17:25 11,6 C 24,3 C 11,4 C 12,3 C 12,3 C 0,7 C 82 % 89 % 18 % 1022,6 hPa 0,0 l/m 3,5 km/h (1 Bft) O-NO 67 5 min 0,0 UV-I 8,6 C 12,3 C 4,0 km/h (1 Bft)
24.10.2014 17:30 11,5 C 24,3 C 11,3 C 11,7 C 11,7 C 0,2 C 82 % 89 % 5 % 1022,6 hPa 0,0 l/m 3,2 km/h (1 Bft) O-NO 67 0 min 0,0 UV-I 8,5 C 11,7 C 3,2 km/h (1 Bft)
24.10.2014 17:35 11,3 C 24,3 C 11,2 C 11,5 C 11,5 C 0,2 C 82 % 89 % 5 % 1022,6 hPa 0,0 l/m 3,2 km/h (1 Bft) O-NO 67 0 min 0,0 UV-I 8,3 C 11,5 C 3,7 km/h (1 Bft)
24.10.2014 17:40 11,1 C 24,3 C 11,2 C 11,3 C 11,3 C 0,2 C 83 % 90 % 5 % 1022,6 hPa 0,0 l/m 2,6 km/h (1 Bft) O-NO 67 0 min 0,0 UV-I 8,3 C 11,3 C 3,9 km/h (1 Bft)
24.10.2014 17:45 11,0 C 24,3 C 11,0 C 11,1 C 11,1 C 0,1 C 83 % 90 % 3 % 1022,6 hPa 0,0 l/m 2,6 km/h (1 Bft) O-NO 67 0 min 0,0 UV-I 8,2 C 11,1 C 4,2 km/h (1 Bft)
24.10.2014 17:50 10,8 C 24,3 C 10,8 C 10,8 C 10,7 C 0,0 C 83 % 90 % 0 % 1022,0 hPa 0,0 l/m 1,4 km/h (1 Bft) O-NO 67 0 min 0,0 UV-I 8,0 C 10,7 C 0,0 km/h (0 Bft)
24.10.2014 17:55 10,6 C 24,3 C 10,6 C 10,5 C 10,3 C 0,0 C 83 % 90 % 0 % 1022,0 hPa 0,0 l/m 0,5 km/h (0 Bft) O-NO 67 0 min 0,0 UV-I 7,8 C 10,3 C 0,0 km/h (0 Bft)
24.10.2014 18:00 10,4 C 24,3 C 10,3 C 10,2 C 9,9 C 0,0 C 83 % 91 % 0 % 1022,0 hPa 0,0 l/m 0,0 km/h (0 Bft) O 90 0 min 0,0 UV-I 7,6 C 9,9 C 0,0 km/h (0 Bft)
24.10.2014 18:05 10,3 C 24,5 C 10,1 C 10,0 C 9,5 C 0,0 C 83 % 91 % 0 % 1022,0 hPa 0,0 l/m 0,0 km/h (0 Bft) O-NO 67 0 min 0,0 UV-I 7,5 C 9,5 C 0,0 km/h (0 Bft)
24.10.2014 18:10 10,1 C 24,5 C 9,9 C 9,8 C 9,1 C 0,0 C 83 % 90 % 0 % 1021,8 hPa 0,0 l/m 0,0 km/h (0 Bft) NO 45 0 min 0,0 UV-I 7,3 C 9,1 C 0,0 km/h (0 Bft)
24.10.2014 18:15 9,9 C 24,5 C 9,7 C 9,6 C 8,9 C 0,0 C 84 % 90 % 0 % 1021,8 hPa 0,0 l/m 0,0 km/h (0 Bft) NO 45 0 min 0,0 UV-I 7,3 C 8,9 C 0,0 km/h (0 Bft)
24.10.2014 18:20 9,6 C 24,5 C 9,4 C 9,3 C 8,6 C 0,0 C 84 % 91 % 0 % 1021,8 hPa 0,0 l/m 0,0 km/h (0 Bft) O-NO 67 0 min 0,0 UV-I 7,0 C 8,6 C 0,0 km/h (0 Bft)
24.10.2014 18:25 9,5 C 24,5 C 9,3 C 9,2 C 8,5 C 0,0 C 84 % 91 % 0 % 1021,8 hPa 0,0 l/m 0,0 km/h (0 Bft) NO 45 0 min 0,0 UV-I 6,9 C 8,5 C 0,0 km/h (0 Bft)
24.10.2014 18:30 9,3 C 24,5 C 9,2 C 9,0 C 8,3 C 0,0 C 85 % 91 % 0 % 1021,7 hPa 0,0 l/m 0,0 km/h (0 Bft) O-NO 67 0 min 0,0 UV-I 6,9 C 8,3 C 0,0 km/h (0 Bft)
24.10.2014 18:35 9,1 C 24,5 C 9,1 C 8,8 C 8,1 C 0,0 C 84 % 91 % 0 % 1021,7 hPa 0,0 l/m 0,0 km/h (0 Bft) O-NO 67 0 min 0,0 UV-I 6,5 C 8,1 C 0,0 km/h (0 Bft)
24.10.2014 18:42 8,9 C 24,6 C 8,9 C 8,6 C 8,0 C 0,0 C 85 % 91 % 0 % 1021,7 hPa 0,0 l/m 0,0 km/h (0 Bft) N 0 0 min 0,0 UV-I 6,5 C 8,0 C 0,0 km/h (0 Bft)
24.10.2014 18:45 8,7 C 24,5 C 8,8 C 8,4 C 7,9 C 0,0 C 85 % 91 % 0 % 1021,7 hPa 0,0 l/m 0,0 km/h (0 Bft) O-NO 67 0 min 0,0 UV-I 6,3 C 7,9 C 0,0 km/h (0 Bft)
24.10.2014 18:50 8,5 C 24,5 C 8,7 C 8,3 C 7,9 C 0,0 C 85 % 91 % 0 % 1022,0 hPa 0,0 l/m 0,0 km/h (0 Bft) N-NO 22 0 min 0,0 UV-I 6,1 C 7,9 C 0,0 km/h (0 Bft)
24.10.2014 18:55 8,5 C 24,5 C 8,7 C 8,3 C 7,9 C 0,0 C 85 % 91 % 0 % 1022,0 hPa 0,0 l/m 0,0 km/h (0 Bft) O-NO 67 0 min 0,0 UV-I 6,1 C 7,9 C 0,0 km/h (0 Bft)
24.10.2014 19:00 8,2 C 24,5 C 8,5 C 8,0 C 7,7 C 0,0 C 86 % 91 % 0 % 1022,0 hPa 0,0 l/m 0,0 km/h (0 Bft) N-NO 22 0 min 0,0 UV-I 6,0 C 7,7 C 0,0 km/h (0 Bft)
24.10.2014 19:05 8,1 C 24,5 C 8,4 C 8,0 C 7,7 C 0,0 C 86 % 91 % 0 % 1022,0 hPa 0,0 l/m 0,0 km/h (0 Bft) N-NO 22 0 min 0,0 UV-I 5,9 C 7,7 C 0,0 km/h (0 Bft)
24.10.2014 19:10 8,0 C 24,6 C 8,3 C 7,9 C 7,7 C 0,0 C 86 % 91 % 0 % 1021,9 hPa 0,0 l/m 0,0 km/h (0 Bft) NO 45 0 min 0,0 UV-I 5,8 C 7,7 C 0,0 km/h (0 Bft)
24.10.2014 19:15 7,9 C 24,5 C 8,2 C 7,8 C 7,6 C 0,0 C 86 % 91 % 0 % 1021,9 hPa 0,0 l/m 0,0 km/h (0 Bft) N-NO 22 0 min 0,0 UV-I 5,7 C 7,6 C 1,6 km/h (1 Bft)
24.10.2014 19:20 7,8 C 24,5 C 8,3 C 7,7 C 7,5 C 0,0 C 86 % 91 % 0 % 1021,9 hPa 0,0 l/m 0,0 km/h (0 Bft) N 360 0 min 0,0 UV-I 5,6 C 7,5 C 0,0 km/h (0 Bft)
24.10.2014 19:25 7,6 C 24,5 C 8,1 C 7,5 C 7,4 C 0,0 C 87 % 91 % 0 % 1021,9 hPa 0,0 l/m 0,2 km/h (0 Bft) N 360 0 min 0,0 UV-I 5,6 C 7,4 C 0,0 km/h (0 Bft)
24.10.2014 19:30 7,5 C 24,5 C 8,0 C 7,4 C 7,3 C 0,0 C 87 % 91 % 0 % 1022,1 hPa 0,0 l/m 0,3 km/h (0 Bft) N-NW 337 0 min 0,0 UV-I 5,5 C 7,3 C 2,1 km/h (1 Bft)
24.10.2014 19:35 7,5 C 24,5 C 8,1 C 7,4 C 7,3 C 0,0 C 87 % 91 % 0 % 1022,1 hPa 0,0 l/m 0,3 km/h (0 Bft) NW 315 0 min 0,0 UV-I 5,5 C 7,3 C 0,0 km/h (0 Bft)
24.10.2014 19:40 7,2 C 24,5 C 8,0 C 7,2 C 7,1 C 0,0 C 87 % 91 % 0 % 1022,1 hPa 0,0 l/m 0,3 km/h (0 Bft) NO 45 0 min 0,0 UV-I 5,2 C 7,1 C 0,0 km/h (0 Bft)
24.10.2014 19:45 7,3 C 24,5 C 7,9 C 7,2 C 7,0 C 0,0 C 87 % 91 % 0 % 1022,1 hPa 0,0 l/m 0,0 km/h (0 Bft) N 360 0 min 0,0 UV-I 5,3 C 7,0 C 0,0 km/h (0 Bft)
24.10.2014 19:50 7,1 C 24,5 C 7,9 C 7,0 C 6,9 C 0,0 C 87 % 91 % 0 % 1022,1 hPa 0,0 l/m 0,0 km/h (0 Bft) O-SO 112 0 min 0,0 UV-I 5,1 C 6,9 C 0,0 km/h (0 Bft)
24.10.2014 19:55 7,0 C 24,5 C 7,8 C 7,0 C 6,9 C 0,0 C 87 % 92 % 0 % 1022,1 hPa 0,0 l/m 0,2 km/h (0 Bft) NW 315 0 min 0,0 UV-I 5,0 C 6,9 C 1,6 km/h (1 Bft)
24.10.2014 20:00 6,9 C 24,4 C 7,9 C 6,9 C 6,8 C 0,0 C 87 % 92 % 0 % 1022,1 hPa 0,0 l/m 0,2 km/h (0 Bft) O-NO 67 0 min 0,0 UV-I 4,9 C 6,8 C 0,0 km/h (0 Bft)
24.10.2014 20:05 6,9 C 24,4 C 7,7 C 6,9 C 6,8 C 0,0 C 88 % 92 % 0 % 1022,1 hPa 0,0 l/m 0,3 km/h (0 Bft) W 270 0 min 0,0 UV-I 5,1 C 6,8 C 0,0 km/h (0 Bft)
24.10.2014 20:10 6,9 C 24,4 C 7,8 C 6,9 C 6,8 C 0,0 C 88 % 92 % 0 % 1022,2 hPa 0,0 l/m 0,6 km/h (0 Bft) N-NO 22 0 min 0,0 UV-I 5,1 C 6,8 C 0,0 km/h (0 Bft)
24.10.2014 20:15 6,9 C 24,5 C 7,7 C 6,8 C 6,7 C 0,0 C 87 % 92 % 0 % 1022,2 hPa 0,0 l/m 0,3 km/h (0 Bft) N-NW 337 0 min 0,0 UV-I 4,9 C 6,7 C 0,0 km/h (0 Bft)
24.10.2014 20:20 6,9 C 24,5 C 7,7 C 6,8 C 6,7 C 0,0 C 87 % 92 % 0 % 1022,2 hPa 0,0 l/m 0,3 km/h (0 Bft) SO 135 0 min 0,0 UV-I 4,9 C 6,7 C 0,0 km/h (0 Bft)
24.10.2014 20:25 6,8 C 24,4 C 7,7 C 6,7 C 6,6 C 0,0 C 87 % 92 % 0 % 1022,2 hPa 0,0 l/m 0,3 km/h (0 Bft) W-NW 292 0 min 0,0 UV-I 4,8 C 6,6 C 0,0 km/h (0 Bft)
24.10.2014 20:30 6,7 C 24,5 C 7,6 C 6,6 C 6,4 C 0,0 C 87 % 92 % 0 % 1022,1 hPa 0,0 l/m 0,0 km/h (0 Bft) O-NO 67 0 min 0,0 UV-I 4,7 C 6,4 C 0,0 km/h (0 Bft)
24.10.2014 20:35 6,7 C 24,5 C 7,5 C 6,6 C 6,4 C 0,0 C 87 % 92 % 0 % 1022,1 hPa 0,0 l/m 0,0 km/h (0 Bft) O-NO 67 0 min 0,0 UV-I 4,7 C 6,4 C 0,0 km/h (0 Bft)
24.10.2014 20:40 6,5 C 24,5 C 7,4 C 6,4 C 6,3 C 0,0 C 87 % 92 % 0 % 1022,1 hPa 0,0 l/m 0,0 km/h (0 Bft) N-NO 22 0 min 0,0 UV-I 4,5 C 6,3 C 0,0 km/h (0 Bft)
24.10.2014 20:45 6,4 C 24,5 C 7,3 C 6,3 C 6,2 C 0,0 C 87 % 92 % 0 % 1022,1 hPa 0,0 l/m 0,2 km/h (0 Bft) S-SO 157 0 min 0,0 UV-I 4,4 C 6,2 C 0,0 km/h (0 Bft)
24.10.2014 20:50 6,4 C 24,5 C 7,3 C 6,3 C 6,1 C 0,0 C 87 % 92 % 0 % 1022,2 hPa 0,0 l/m 0,2 km/h (0 Bft) W 270 0 min 0,0 UV-I 4,4 C 6,1 C 0,0 km/h (0 Bft)
24.10.2014 20:55 6,3 C 24,4 C 7,2 C 6,2 C 6,1 C 0,0 C 87 % 92 % 0 % 1022,2 hPa 0,0 l/m 0,2 km/h (0 Bft) W-NW 292 0 min 0,0 UV-I 4,3 C 6,1 C 0,0 km/h (0 Bft)
24.10.2014 21:00 6,4 C 24,4 C 7,2 C 6,3 C 6,1 C 0,0 C 87 % 92 % 0 % 1022,2 hPa 0,0 l/m 0,2 km/h (0 Bft) W-NW 292 0 min 0,0 UV-I 4,4 C 6,1 C 0,0 km/h (0 Bft)
24.10.2014 21:05 6,3 C 24,4 C 7,3 C 6,2 C 6,1 C 0,0 C 87 % 92 % 0 % 1022,2 hPa 0,0 l/m 0,0 km/h (0 Bft) W-SW 247 0 min 0,0 UV-I 4,3 C 6,1 C 0,0 km/h (0 Bft)
24.10.2014 21:10 6,2 C 24,4 C 7,1 C 6,1 C 6,0 C 0,0 C 87 % 92 % 0 % 1022,4 hPa 0,0 l/m 0,0 km/h (0 Bft) N 360 0 min 0,0 UV-I 4,2 C 6,0 C 0,0 km/h (0 Bft)
24.10.2014 21:15 6,2 C 24,4 C 7,1 C 6,1 C 5,9 C 0,0 C 87 % 92 % 0 % 1022,4 hPa 0,0 l/m 0,0 km/h (0 Bft) S 180 0 min 0,0 UV-I 4,2 C 5,9 C 0,0 km/h (0 Bft)
24.10.2014 21:20 6,1 C 24,4 C 7,0 C 6,0 C 5,9 C 0,0 C 87 % 92 % 0 % 1022,4 hPa 0,0 l/m 0,0 km/h (0 Bft) O 90 0 min 0,0 UV-I 4,1 C 5,9 C 0,0 km/h (0 Bft)
24.10.2014 21:25 6,0 C 24,4 C 6,9 C 5,9 C 5,8 C 0,0 C 87 % 92 % 0 % 1022,4 hPa 0,0 l/m 0,0 km/h (0 Bft) O-NO 67 0 min 0,0 UV-I 4,0 C 5,8 C 0,0 km/h (0 Bft)
24.10.2014 21:30 6,0 C 24,4 C 6,8 C 5,9 C 5,7 C 0,0 C 87 % 92 % 0 % 1022,3 hPa 0,0 l/m 0,0 km/h (0 Bft) NO 45 0 min 0,0 UV-I 4,0 C 5,7 C 0,0 km/h (0 Bft)
24.10.2014 21:35 5,9 C 24,4 C 6,8 C 5,8 C 5,6 C 0,0 C 87 % 92 % 0 % 1022,3 hPa 0,0 l/m 0,0 km/h (0 Bft) NW 315 0 min 0,0 UV-I 3,9 C 5,6 C 0,0 km/h (0 Bft)
24.10.2014 21:42 5,9 C 24,4 C 6,8 C 5,8 C 5,6 C 0,0 C 87 % 92 % 0 % 1022,3 hPa 0,0 l/m 0,0 km/h (0 Bft) N 0 0 min 0,0 UV-I 3,9 C 5,6 C 0,0 km/h (0 Bft)
24.10.2014 21:50 5,7 C 24,4 C 6,7 C 5,6 C 5,4 C 0,0 C 87 % 92 % 0 % 1022,4 hPa 0,0 l/m 0,0 km/h (0 Bft) NW 315 0 min 0,0 UV-I 3,7 C 5,4 C 0,0 km/h (0 Bft)
24.10.2014 21:55 5,6 C 24,4 C 6,7 C 5,5 C 5,4 C 0,0 C 87 % 92 % 0 % 1022,4 hPa 0,0 l/m 0,0 km/h (0 Bft) NO 45 0 min 0,0 UV-I 3,6 C 5,4 C 0,0 km/h (0 Bft)
24.10.2014 22:00 5,5 C 24,4 C 6,6 C 5,4 C 5,3 C 0,0 C 87 % 92 % 0 % 1022,4 hPa 0,0 l/m 0,0 km/h (0 Bft) N-NW 337 0 min 0,0 UV-I 3,5 C 5,3 C 0,0 km/h (0 Bft)
24.10.2014 22:05 5,4 C 24,4 C 6,5 C 5,3 C 5,2 C 0,0 C 87 % 92 % 0 % 1022,4 hPa 0,0 l/m 0,0 km/h (0 Bft) O-NO 67 0 min 0,0 UV-I 3,4 C 5,2 C 0,0 km/h (0 Bft)
24.10.2014 22:10 5,3 C 24,4 C 6,3 C 5,3 C 5,3 C 0,0 C 87 % 92 % 0 % 1022,4 hPa 0,0 l/m 0,0 km/h (0 Bft) O-NO 67 0 min 0,0 UV-I 3,3 C 5,3 C 0,0 km/h (0 Bft)
24.10.2014 22:15 5,2 C 24,4 C 6,3 C 5,3 C 5,3 C 0,1 C 87 % 92 % 0 % 1022,4 hPa 0,0 l/m 0,0 km/h (0 Bft) O-SO 112 0 min 0,0 UV-I 3,2 C 5,3 C 0,0 km/h (0 Bft)
24.10.2014 22:20 5,2 C 24,4 C 6,2 C 5,4 C 5,4 C 0,2 C 88 % 92 % 0 % 1022,4 hPa 0,0 l/m 0,0 km/h (0 Bft) O-NO 67 0 min 0,0 UV-I 3,4 C 5,4 C 0,0 km/h (0 Bft)
24.10.2014 22:25 5,1 C 24,4 C 6,3 C 5,3 C 5,3 C 0,2 C 88 % 92 % 0 % 1022,4 hPa 0,0 l/m 0,0 km/h (0 Bft) SW 225 0 min 0,0 UV-I 3,3 C 5,3 C 0,0 km/h (0 Bft)
24.10.2014 22:30 5,1 C 24,4 C 6,2 C 5,1 C 5,1 C 0,0 C 88 % 92 % 0 % 1022,5 hPa 0,0 l/m 0,0 km/h (0 Bft) SO 135 0 min 0,0 UV-I 3,3 C 5,1 C 0,0 km/h (0 Bft)
24.10.2014 22:35 4,9 C 24,4 C 6,1 C 5,1 C 5,1 C 0,2 C 87 % 92 % 0 % 1022,5 hPa 0,0 l/m 0,0 km/h (0 Bft) N-NO 22 0 min 0,0 UV-I 2,9 C 5,1 C 0,0 km/h (0 Bft)
24.10.2014 22:40 4,9 C 24,4 C 6,1 C 5,0 C 5,0 C 0,1 C 88 % 92 % 0 % 1022,5 hPa 0,0 l/m 0,0 km/h (0 Bft) O-NO 67 0 min 0,0 UV-I 3,1 C 5,0 C 0,0 km/h (0 Bft)
24.10.2014 22:45 4,8 C 24,4 C 5,9 C 5,1 C 5,1 C 0,3 C 88 % 92 % 0 % 1022,5 hPa 0,0 l/m 0,0 km/h (0 Bft) NO 45 0 min 0,0 UV-I 3,0 C 5,1 C 0,0 km/h (0 Bft)
24.10.2014 22:50 4,8 C 24,4 C 5,9 C 4,8 C 4,7 C 0,0 C 88 % 92 % 0 % 1022,4 hPa 0,0 l/m 0,0 km/h (0 Bft) O-SO 112 0 min 0,0 UV-I 3,0 C 4,7 C 0,0 km/h (0 Bft)
24.10.2014 22:55 4,7 C 24,4 C 5,9 C 4,7 C 4,6 C 0,0 C 88 % 92 % 0 % 1022,4 hPa 0,0 l/m 0,0 km/h (0 Bft) SO 135 0 min 0,0 UV-I 2,9 C 4,6 C 0,0 km/h (0 Bft)
24.10.2014 23:00 4,5 C 24,4 C 5,7 C 4,5 C 4,5 C 0,0 C 88 % 92 % 0 % 1022,4 hPa 0,0 l/m 0,0 km/h (0 Bft) O-NO 67 0 min 0,0 UV-I 2,7 C 4,5 C 0,0 km/h (0 Bft)
24.10.2014 23:05 4,4 C 24,3 C 5,6 C 4,4 C 4,4 C 0,0 C 88 % 92 % 0 % 1022,4 hPa 0,0 l/m 0,0 km/h (0 Bft) O-NO 67 0 min 0,0 UV-I 2,6 C 4,4 C 0,0 km/h (0 Bft)
24.10.2014 23:10 4,4 C 24,4 C 5,6 C 4,4 C 4,4 C 0,0 C 88 % 92 % 0 % 1022,6 hPa 0,0 l/m 0,0 km/h (0 Bft) O-NO 67 0 min 0,0 UV-I 2,6 C 4,4 C 0,0 km/h (0 Bft)
24.10.2014 23:15 4,2 C 24,3 C 5,6 C 4,3 C 4,3 C 0,1 C 88 % 92 % 0 % 1022,6 hPa 0,0 l/m 0,0 km/h (0 Bft) O-NO 67 0 min 0,0 UV-I 2,4 C 4,3 C 0,0 km/h (0 Bft)
24.10.2014 23:20 4,3 C 24,4 C 5,5 C 4,3 C 4,3 C 0,0 C 88 % 92 % 0 % 1022,6 hPa 0,0 l/m 0,0 km/h (0 Bft) O-NO 67 0 min 0,0 UV-I 2,5 C 4,3 C 0,0 km/h (0 Bft)
24.10.2014 23:25 4,3 C 24,4 C 5,5 C 4,4 C 4,4 C 0,1 C 88 % 92 % 0 % 1022,6 hPa 0,0 l/m 0,0 km/h (0 Bft) SO 135 0 min 0,0 UV-I 2,5 C 4,4 C 0,0 km/h (0 Bft)
24.10.2014 23:30 4,1 C 24,3 C 5,5 C 4,1 C 4,0 C 0,0 C 88 % 92 % 0 % 1023,2 hPa 0,0 l/m 0,0 km/h (0 Bft) SW 225 0 min 0,0 UV-I 2,3 C 4,0 C 0,0 km/h (0 Bft)
24.10.2014 23:35 4,0 C 24,3 C 5,4 C 3,9 C 3,8 C 0,0 C 88 % 92 % 0 % 1023,2 hPa 0,0 l/m 0,0 km/h (0 Bft) N-NO 22 0 min 0,0 UV-I 2,2 C 3,8 C 0,0 km/h (0 Bft)
24.10.2014 23:40 3,9 C 24,3 C 5,2 C 3,9 C 3,9 C 0,0 C 88 % 92 % 0 % 1023,2 hPa 0,0 l/m 0,0 km/h (0 Bft) N-NO 22 0 min 0,0 UV-I 2,1 C 3,9 C 0,0 km/h (0 Bft)
24.10.2014 23:45 3,9 C 24,3 C 5,2 C 3,9 C 3,9 C 0,0 C 88 % 92 % 0 % 1023,2 hPa 0,0 l/m 0,0 km/h (0 Bft) N-NO 22 0 min 0,0 UV-I 2,1 C 3,9 C 0,0 km/h (0 Bft)
24.10.2014 23:50 3,9 C 24,4 C 5,3 C 3,9 C 3,8 C 0,0 C 88 % 92 % 0 % 1022,9 hPa 0,0 l/m 0,0 km/h (0 Bft) S-SW 202 0 min 0,0 UV-I 2,1 C 3,8 C 0,0 km/h (0 Bft)
24.10.2014 23:55 3,7 C 24,3 C 5,2 C 3,7 C 3,6 C 0,0 C 88 % 92 % 0 % 1022,9 hPa 0,0 l/m 0,0 km/h (0 Bft) W-SW 247 0 min 0,0 UV-I 1,9 C 3,6 C 0,0 km/h (0 Bft)
_ Min-Zeit 23:55 10:40 23:40 23:55 23:55 02:45 15:35 15:35 00:00 18:30 - 00:00 - - - 00:00 23:55 23:55 00:00
Minimum _ 3,7 C 24,1 C 5,2 C 3,7 C 3,6 C 0,0 C 73 % 87 % 0 % 1021,7 hPa - 0,0 km/h (0 Bft) - - - 0,0 UV-I 1,9 C 3,6 C 0,0 km/h (0 Bft)
_ Max-Zeit 16:05 00:15 16:05 16:10 16:10 13:10 00:00 00:00 12:42 10:30 00:00 16:35 - - 12:42 00:00 16:30 16:10 10:55
Maximum _ 13,4 C 24,7 C 13,3 C 18,4 C 18,4 C 6,0 C 93 % 94 % 100 % 1025,0 hPa 0,0 l/m 5,1 km/h
O-SO (1 Bft)
- - 7 min 0,0 UV-I 9,0 C 18,4 C 9,5 km/h
O (2 Bft)
Durchschnitt _ 8,8 C 24,4 C 9,5 C 10,0 C 10,0 C 1,2 C 87 % 92 % 22 % 1023,6 hPa #0,0 l/m 1,0 km/h (0 Bft) O-NO - #3:40 h 0,0 UV-I 6,8 C 10,0 C 1,3 km/h (1 Bft)
2014 www.wetterstation-wechselburg.de